CheckWX is a tool to help pilots better visualize weather data.  It is not intended as a substitute for an official pre-flight weather briefing.

05:57:33 UTC

EKSB METAR
Sønderborg Airport
Sønderborg, Denmark
Current

38 mins ago

EKSB 100520Z 25007KT CAVOK 03/00 Q1017
Observed
Dec-10 @ 05:20 UTC
Wind
  • 250° at 7 KTS
Visibility
10,000+ meters
Flight Rules
VFR
Cloud Levels
  • Clear skies
Temperature
C / 37°F
Dewpoint
C / 32°F
Humidity
81%
Altimeter
30.03" Hg
Pressure
1016.92 hPa
Previous

1 hour ago

EKSB 100450Z AUTO 26007KT 9999NDV NCD 03/M00 Q1016
Observed
Dec-10 @ 04:50 UTC
Wind
  • 260° at 7 KTS
Visibility
Cloud Levels
  • Clear skies
Temperature
C / 37°F
Dewpoint
C / 32°F
Humidity
81%
Altimeter
30" Hg
Pressure
1015.92 hPa
Previous

2 hours ago

EKSB 100420Z AUTO 26007KT 9999NDV NCD 03/M01 Q1016
Observed
Dec-10 @ 04:20 UTC
Wind
  • 260° at 7 KTS
Visibility
Cloud Levels
  • Clear skies
Temperature
C / 37°F
Dewpoint
-1°C / 30°F
Humidity
75%
Altimeter
30" Hg
Pressure
1015.92 hPa